Strona główna
METAR-TAF:

METAR-TAF

Lotnisko :

Port lotniczy Oslo-Gardermoen

Oslo, Norwegia

Szerokość geograficzna: 60-12N, Długość geograficzna: 011-05E, wysokość: 208 m

Aktualna obserwacja pogody

Raport powstał 39 minut temu, godzina 19:20 UTC
Wiatr 3 kt od północno-północny wschód, zmienny między północno-północny zachód i wschodnio-północny wschód
Temperatura -13°C
Wilgotność 100%
Ciśnienie 1002 hPa
Widzialność 10 km lub więcej
Brak chmur poniżej 1500 m i brak chmur cumulonimbus

METAR: ENGM 251920Z 02003KT 340V070 CAVOK M13/M13 Q1002

czas: 20:59 (19:59 UTC)

Prognoza

Prognoza ważna od 25 godzina 18 UTC do 26 godzina 18 UTC
Wiatr 5 kt od północ
Widzialność 10 km lub więcej
Brak chmur poniżej 1500 m i brak chmur cumulonimbus

TAF: ENGM 2518/2618 36005KT CAVOK

Obserwacja i prognoza pogody dla ponad 4000 lotnisk (raport METAR i TAF).

Dostępne stacje oznaczono żółtymi i czerwonymi punktami na mapie.

Najedź kursorem aby zobaczyć nazwę stacji.

Kliknij aby zobaczyć obserwacje i prognozy pogody.

Aby zmienić mapę: kliknij na zielony przycisk z czarnym krzyżykiem, aby powiększyć; na zielony przycisk z myślnikiem, aby pomniejszyć; na zielone strzałki, aby przejść do map sąsiednich.


METAR-TAF: